Racecast

Cleatus Peake VI

Virginia Beach Flames (VA) · - · Compare head to head

Athlete rating
Races 41
Seasons 1 2026
Speed rating — all races

Track & Field

TF speed rating

2026 TF

Virginia Beach Flames (VA) · Grade -

Date Meet Event Result Place Rating Difficulty PR/SR Flags
2026-06-13 AAU Virginia District Qualifier - South 200m 36.61 15th · 1st on team -0.033 ★PR SR
2026-06-13 AAU Virginia District Qualifier - South 100m 17.31 3rd · 1st on team -0.033 ★PR SR
2026-06-13 AAU Virginia District Qualifier - South 50m 8.95 1st · 1st on team -0.033 ★PR SR
2026-05-30 Va Beach Flames Invite 100m 17.52 8th · 1st on team -0.023 PR SR
2026-05-24 HR Hurricanes CAT 5 Invite 50m 9.27 4th · 1st on team -0.035 PR SR
2026-05-24 HR Hurricanes CAT 5 Invite 200m 41.99 7th · 2nd on team -0.035
2026-05-24 HR Hurricanes CAT 5 Invite 100m 18.53 11th · 2nd on team -0.035
2026-05-24 HR Hurricanes CAT 5 Invite 100m 18.43 10th · 1st on team -0.035
2026-05-09 VA "Legends" T & F Youth Invite 50m 9.75 3rd · 1st on team -0.033 PR SR
2026-05-09 VA "Legends" T & F Youth Invite 200m 42.35 5th · 1st on team -0.033
2026-05-09 VA "Legends" T & F Youth Invite 100m 19.04 7th · 1st on team -0.033
2026-05-02 The DMV Track and Field Classic 200m 47.49 7th · 2nd on team -0.021
2026-05-02 The DMV Track and Field Classic 400m 1:46.81 8th · 3rd on team -0.021 ★PR SR
2026-05-02 The DMV Track and Field Classic 100m 18.6 18th · 3rd on team -0.021
2026-04-26 Virginia Pride Spring Kick-Off 200m 56.07 15th · 1st on team -0.029
2026-03-06 AAU Indoor National Championship lj 1.68m -0.036
2026-03-06 AAU Indoor National Championship 200m 38.79 10th · 2nd on team -0.036
2026-03-06 AAU Indoor National Championship 60m 10.93 7th · 2nd on team -0.036 PR SR
2026-03-06 AAU Indoor National Championship 60m 10.83 5th · 1st on team -0.036 ★PR SR
2026-03-06 AAU Indoor National Championship 200m 37.85 5th · 1st on team -0.036
2026-02-28 BWSP Queens and Kings Championships 55m 9.96 1st · 1st on team -0.024 ★PR SR
2026-02-28 BWSP Queens and Kings Championships 100m 17.72 2nd · 1st on team -0.024 PR SR
2026-02-28 BWSP Queens and Kings Championships 200m 37.79 2nd · 1st on team -0.024 PR SR
2026-02-28 BWSP Queens and Kings Championships 55m 10.07 3rd · 2nd on team -0.024
2026-02-22 3rd Annual HRH Winter Storm Classic 100m 18.45 4th · 1st on team -0.024 PR SR
2026-02-22 3rd Annual HRH Winter Storm Classic 200m 41.44 4th · 1st on team -0.024
2026-02-22 3rd Annual HRH Winter Storm Classic 55m 10.01 1st · 1st on team -0.024 PR SR
2026-02-22 3rd Annual HRH Winter Storm Classic 55m 10.26 7th · 2nd on team -0.024
2026-01-31 BWSP Queens and Kings - Meet 3 55m 10.53 4th · 2nd on team -0.024
2026-01-31 BWSP Queens and Kings - Meet 3 200m 40.18 3rd · 1st on team -0.024 PR SR
2026-01-31 BWSP Queens and Kings - Meet 3 55m 10.21 1st · 1st on team -0.024 PR SR
2026-01-31 BWSP Queens and Kings - Meet 3 100m 19.2 3rd · 1st on team -0.024
2026-01-25 Virginia Beach Flames Invitational 60m 12.37 26th · 10th on team -0.036 PR SR
2026-01-17 BWSP Queens and Kings - Meet 2 55m 10.38 3rd · 2nd on team -0.024 PR SR
2026-01-17 BWSP Queens and Kings - Meet 2 55m 10.3 1st · 1st on team -0.024 PR SR
2026-01-17 BWSP Queens and Kings - Meet 2 200m 41.45 2nd · 1st on team -0.024 PR SR
2026-01-17 BWSP Queens and Kings - Meet 2 100m 18.89 3rd · 1st on team -0.024 PR SR
2026-01-03 BWSP Queens and Kings - Meet 1 100m 19.53 5th · 1st on team -0.024 PR SR
2026-01-03 BWSP Queens and Kings - Meet 1 55m 10.73 11th · 2nd on team -0.024 PR SR
2026-01-03 BWSP Queens and Kings - Meet 1 55m 10.61 8th · 1st on team -0.024 PR SR
2026-01-03 BWSP Queens and Kings - Meet 1 200m 44.43 3rd · 1st on team -0.024 PR SR